createdAt,value
2019-01-21T00:00:42.871Z,23.13
2019-01-21T00:03:14.676Z,26.07
2019-01-21T00:05:43.944Z,22.27
2019-01-21T00:08:13.620Z,23.60
2019-01-21T00:10:43.216Z,19.00
2019-01-21T00:13:12.813Z,27.37
2019-01-21T00:15:42.547Z,23.47
2019-01-21T00:18:12.245Z,19.83
2019-01-21T00:20:45.111Z,24.37
2019-01-21T00:23:14.741Z,21.50
2019-01-21T00:25:44.337Z,29.70
2019-01-21T00:28:13.932Z,19.03
2019-01-21T00:30:43.535Z,18.97
2019-01-21T00:33:13.135Z,23.83
2019-01-21T00:35:42.748Z,18.23
2019-01-21T00:38:12.411Z,18.63
2019-01-21T00:40:42.386Z,15.93
2019-01-21T00:43:11.974Z,18.10
2019-01-21T00:45:41.571Z,15.50
2019-01-21T00:48:13.371Z,15.53
2019-01-21T00:50:46.536Z,14.40
2019-01-21T00:53:19.502Z,16.63
2019-01-21T00:55:49.056Z,14.73
2019-01-21T00:58:18.658Z,17.10
2019-01-21T01:00:48.253Z,22.57
2019-01-21T01:03:17.848Z,20.07
2019-01-21T01:05:47.445Z,16.17
2019-01-21T01:08:17.048Z,17.53
2019-01-21T01:10:46.643Z,20.07
2019-01-21T01:13:16.249Z,22.50
2019-01-21T01:15:45.963Z,19.70
2019-01-21T01:18:15.571Z,21.07
2019-01-21T01:20:45.157Z,23.80
2019-01-21T01:23:14.828Z,25.70
2019-01-21T01:25:44.433Z,26.50
2019-01-21T01:28:15.670Z,27.10
2019-01-21T01:30:45.267Z,22.67
2019-01-21T01:33:14.865Z,23.57
2019-01-21T01:35:44.467Z,21.67
2019-01-21T01:38:14.067Z,25.67
2019-01-21T01:40:45.835Z,20.50
2019-01-21T01:43:15.500Z,20.87
2019-01-21T01:45:45.095Z,22.40
2019-01-21T01:48:14.688Z,23.73
2019-01-21T01:50:44.281Z,25.53
2019-01-21T01:53:13.877Z,23.37
2019-01-21T01:55:43.545Z,25.37
2019-01-21T01:58:13.129Z,24.50
2019-01-21T02:00:42.727Z,24.87
2019-01-21T02:03:12.332Z,21.43
2019-01-21T02:05:42.096Z,22.77
2019-01-21T02:08:11.750Z,21.90
2019-01-21T02:10:41.351Z,25.33
2019-01-21T02:13:10.946Z,23.20
2019-01-21T02:15:40.911Z,23.60
2019-01-21T02:18:10.579Z,24.60
2019-01-21T02:20:40.257Z,25.13
2019-01-21T02:23:11.987Z,19.10
2019-01-21T02:25:47.551Z,20.40
2019-01-21T02:28:22.925Z,22.13
2019-01-21T02:31:30.877Z,26.50
2019-01-21T02:34:09.517Z,26.27
2019-01-21T02:37:02.191Z,21.33
2019-01-21T02:39:50.112Z,25.80
2019-01-21T02:42:34.791Z,23.83
2019-01-21T02:45:13.572Z,26.63
2019-01-21T02:47:49.219Z,18.73
2019-01-21T02:50:34.007Z,17.43
2019-01-21T02:53:18.910Z,17.60
2019-01-21T02:55:54.867Z,22.00
2019-01-21T02:58:39.575Z,23.67
2019-01-21T03:01:27.282Z,24.37
2019-01-21T03:04:22.811Z,23.63
2019-01-21T03:07:01.334Z,26.07
2019-01-21T03:09:46.158Z,27.57
2019-01-21T03:12:24.786Z,26.63
2019-01-21T03:15:28.109Z,25.63
2019-01-21T03:18:15.802Z,27.03
2019-01-21T03:21:07.437Z,23.43
2019-01-21T03:24:13.805Z,28.40
2019-01-21T03:26:52.588Z,27.90
2019-01-21T03:29:46.634Z,26.03
2019-01-21T03:32:39.202Z,29.60
2019-01-21T03:35:20.856Z,27.13
2019-01-21T03:37:59.973Z,26.30
2019-01-21T03:40:44.952Z,24.40
2019-01-21T03:43:50.889Z,30.27
2019-01-21T03:46:38.839Z,26.80
2019-01-21T03:49:17.740Z,27.43
2019-01-21T03:52:19.587Z,26.40
2019-01-21T03:54:50.266Z,33.17
2019-01-21T03:57:23.129Z,25.83
2019-01-21T04:00:04.752Z,30.50
2019-01-21T04:02:58.032Z,32.03
2019-01-21T04:05:30.887Z,32.87
2019-01-21T04:08:09.821Z,30.43
2019-01-21T04:10:59.285Z,26.90
2019-01-21T04:13:43.603Z,30.33
2019-01-21T04:16:19.283Z,25.67
2019-01-21T04:18:54.962Z,26.27
2019-01-21T04:21:36.827Z,28.97
2019-01-21T04:24:32.183Z,27.87
2019-01-21T04:27:07.624Z,28.40
2019-01-21T04:29:59.945Z,32.60
2019-01-21T04:32:41.464Z,32.27
2019-01-21T04:35:14.322Z,29.57
2019-01-21T04:37:56.096Z,30.07
2019-01-21T04:40:50.138Z,25.43
2019-01-21T04:43:34.907Z,33.17
2019-01-21T04:46:28.813Z,32.47
2019-01-21T04:49:07.755Z,34.40
2019-01-21T04:52:10.652Z,41.50
2019-01-21T04:54:52.502Z,36.70
2019-01-21T04:57:34.137Z,36.20
2019-01-21T05:00:09.835Z,31.37
2019-01-21T05:03:11.875Z,30.50
2019-01-21T05:05:59.961Z,32.70
2019-01-21T05:08:44.957Z,35.27
2019-01-21T05:11:34.423Z,29.30
2019-01-21T05:14:13.401Z,38.90
2019-01-21T05:17:03.068Z,33.63
2019-01-21T05:19:44.982Z,36.97
2019-01-21T05:22:27.096Z,36.03
2019-01-21T05:25:12.140Z,31.40
2019-01-21T05:27:53.787Z,35.63
2019-01-21T05:30:29.642Z,29.90
2019-01-21T05:33:11.156Z,32.03
2019-01-21T05:36:01.965Z,35.67
2019-01-21T05:38:43.845Z,30.87
2019-01-21T05:41:19.300Z,32.23
2019-01-21T05:44:10.530Z,32.17
2019-01-21T05:46:49.017Z,38.20
2019-01-21T05:49:21.905Z,33.37
2019-01-21T05:52:00.695Z,32.23
2019-01-21T05:55:06.851Z,35.00
2019-01-21T05:57:48.358Z,29.40
2019-01-21T06:00:42.148Z,32.73
2019-01-21T06:03:30.092Z,30.10
2019-01-21T06:06:20.717Z,31.33
2019-01-21T06:09:22.505Z,29.50
2019-01-21T06:12:01.665Z,36.10
2019-01-21T06:14:39.137Z,36.17
2019-01-21T06:17:24.155Z,35.67
2019-01-21T06:20:15.345Z,38.07
2019-01-21T06:23:06.312Z,31.33
2019-01-21T06:25:41.905Z,34.63
2019-01-21T06:28:20.591Z,35.80
2019-01-21T06:31:01.807Z,32.60
2019-01-21T06:33:46.513Z,40.87
2019-01-21T06:36:22.089Z,33.67
2019-01-21T06:39:19.206Z,36.60
2019-01-21T06:41:52.091Z,36.03
2019-01-21T06:44:36.281Z,31.57
2019-01-21T06:47:11.912Z,41.93
2019-01-21T06:49:44.807Z,44.40
2019-01-21T06:52:24.008Z,42.87
2019-01-21T06:55:14.603Z,43.93
2019-01-21T06:58:02.836Z,44.67
2019-01-21T07:00:44.825Z,45.40
2019-01-21T07:03:38.758Z,43.50
2019-01-21T07:06:32.566Z,43.97
2019-01-21T07:09:23.288Z,48.93
2019-01-21T07:12:01.774Z,36.77
2019-01-21T07:14:46.579Z,38.63
2019-01-21T07:17:28.665Z,42.00
2019-01-21T07:20:21.222Z,40.73
2019-01-21T07:22:54.125Z,41.37
2019-01-21T07:25:45.100Z,39.77
2019-01-21T07:28:23.617Z,43.40
2019-01-21T07:30:56.488Z,42.00
2019-01-21T07:33:46.225Z,40.37
2019-01-21T07:36:24.946Z,40.87
2019-01-21T07:39:18.764Z,42.40
2019-01-21T07:41:51.623Z,37.43
2019-01-21T07:44:36.153Z,36.30
2019-01-21T07:47:21.152Z,36.03
2019-01-21T07:50:15.280Z,40.93
2019-01-21T07:53:15.031Z,35.97
2019-01-21T07:55:59.984Z,41.43
2019-01-21T07:58:47.953Z,40.13
2019-01-21T08:01:26.895Z,41.13
2019-01-21T08:04:11.537Z,41.67
2019-01-21T08:06:59.278Z,42.70
2019-01-21T08:09:35.081Z,35.80
2019-01-21T08:12:24.431Z,32.53
2019-01-21T08:14:59.889Z,35.70
2019-01-21T08:17:52.635Z,35.97
2019-01-21T08:20:28.230Z,47.67
2019-01-21T08:23:25.846Z,37.27
2019-01-21T08:26:16.229Z,43.40
2019-01-21T08:28:59.052Z,39.10
2019-01-21T08:31:43.597Z,39.33
2019-01-21T08:34:19.330Z,44.37
2019-01-21T08:37:23.963Z,44.43
2019-01-21T08:40:37.147Z,41.33
2019-01-21T08:43:25.224Z,44.33
2019-01-21T08:49:37.181Z,51.43
2019-01-21T08:52:12.623Z,48.27
2019-01-21T08:55:26.702Z,41.43
2019-01-21T09:01:39.578Z,43.93
2019-01-21T09:04:20.666Z,37.17
2019-01-21T09:06:53.532Z,41.57
2019-01-21T09:09:26.398Z,36.40
2019-01-21T09:12:10.462Z,45.23
2019-01-21T09:14:55.105Z,32.53
2019-01-21T09:17:33.534Z,33.23
2019-01-21T09:20:24.365Z,35.17
2019-01-21T09:23:20.570Z,35.20
2019-01-21T09:26:14.034Z,38.87
2019-01-21T09:29:21.194Z,37.70
2019-01-21T09:32:14.559Z,37.80
2019-01-21T09:34:47.426Z,35.03
2019-01-21T09:37:26.419Z,36.37
2019-01-21T09:40:12.243Z,35.17
2019-01-21T09:43:07.640Z,32.63
2019-01-21T09:46:01.406Z,31.77
2019-01-21T09:48:30.068Z,34.07
2019-01-21T09:51:02.326Z,39.60
2019-01-21T09:53:32.077Z,37.73
2019-01-21T09:56:01.831Z,36.33
2019-01-21T09:58:32.065Z,40.13
2019-01-21T10:01:57.124Z,39.07
2019-01-21T10:04:48.502Z,39.30
2019-01-21T10:11:03.343Z,38.40
2019-01-21T10:13:50.781Z,38.47
2019-01-21T10:16:46.236Z,41.70
2019-01-21T10:19:28.038Z,39.03
2019-01-21T10:22:29.180Z,42.93
2019-01-21T10:26:02.849Z,40.63
2019-01-21T10:28:56.888Z,40.30
2019-01-21T10:31:40.007Z,43.73
2019-01-21T10:35:07.558Z,41.63
2019-01-21T10:38:11.465Z,42.57
2019-01-21T10:41:12.385Z,42.27
2019-01-21T10:43:50.595Z,36.90
2019-01-21T10:46:45.701Z,39.23
2019-01-21T10:50:03.584Z,39.70
2019-01-21T10:53:02.976Z,40.17
2019-01-21T10:56:07.273Z,32.07
2019-01-21T10:59:17.673Z,41.80
2019-01-21T11:02:11.431Z,36.37
2019-01-21T11:05:14.412Z,36.23
2019-01-21T11:08:05.947Z,41.17
2019-01-21T11:11:13.356Z,33.17
2019-01-21T11:14:07.909Z,36.47
2019-01-21T11:17:10.001Z,35.43
2019-01-21T11:20:53.987Z,46.30
2019-01-21T11:24:13.551Z,44.73
2019-01-21T11:27:34.032Z,44.80
2019-01-21T11:30:36.820Z,45.80
2019-01-21T11:33:41.594Z,42.30
2019-01-21T11:36:32.914Z,44.47
2019-01-21T11:39:34.747Z,41.43
2019-01-21T11:45:25.305Z,39.47
2019-01-21T11:51:23.846Z,43.87
2019-01-21T11:54:31.551Z,40.93
2019-01-21T11:57:20.339Z,37.27
2019-01-21T12:00:14.168Z,37.83
2019-01-21T12:03:16.095Z,42.80
2019-01-21T12:06:14.566Z,40.30
2019-01-21T12:08:55.652Z,41.63
2019-01-21T12:11:48.496Z,45.97
2019-01-21T12:14:33.094Z,44.17
2019-01-21T12:17:28.539Z,43.83
2019-01-21T12:20:18.154Z,46.30
2019-01-21T12:23:26.624Z,43.40
2019-01-21T12:26:39.198Z,36.23
2019-01-21T12:29:43.712Z,35.60
2019-01-21T12:32:37.058Z,38.70
2019-01-21T12:35:16.560Z,36.07
2019-01-21T12:38:06.512Z,37.30
2019-01-21T12:40:58.688Z,42.43
2019-01-21T12:44:15.768Z,49.53
2019-01-21T12:46:45.699Z,47.93
2019-01-21T12:49:27.321Z,42.03
2019-01-21T12:52:18.002Z,43.10
2019-01-21T12:55:20.452Z,44.33
2019-01-21T12:58:15.154Z,39.67
2019-01-21T13:01:15.133Z,39.77
2019-01-21T13:04:10.496Z,41.13
2019-01-21T13:06:54.966Z,31.53
2019-01-21T13:09:37.652Z,38.00
2019-01-21T13:12:43.351Z,38.77
2019-01-21T13:15:35.070Z,37.00
2019-01-21T13:18:17.727Z,41.47
2019-01-21T13:21:22.460Z,45.93
2019-01-21T13:24:51.058Z,38.57
2019-01-21T13:27:20.346Z,42.87
2019-01-21T13:30:09.066Z,44.73
2019-01-21T13:33:13.767Z,49.97
2019-01-21T13:36:25.449Z,48.53
2019-01-21T13:39:11.378Z,48.33
2019-01-21T13:41:44.248Z,46.57
2019-01-21T13:44:33.797Z,48.03
2019-01-21T13:47:15.667Z,49.17
2019-01-21T13:49:54.357Z,47.30
2019-01-21T13:52:32.857Z,52.60
2019-01-21T13:55:20.586Z,53.17
2019-01-21T13:58:18.982Z,41.70
2019-01-21T14:00:54.670Z,45.87
2019-01-21T14:03:30.230Z,47.73
2019-01-21T14:06:30.640Z,52.10
2019-01-21T14:09:06.449Z,52.27
2019-01-21T14:11:42.219Z,55.70
2019-01-21T14:14:17.741Z,56.07
2019-01-21T14:17:02.314Z,55.93
2019-01-21T14:19:38.207Z,60.87
2019-01-21T14:22:20.309Z,58.23
2019-01-21T14:24:56.313Z,55.63
2019-01-21T14:27:54.294Z,60.00
2019-01-21T14:30:32.923Z,63.23
2019-01-21T14:33:11.514Z,56.97
2019-01-21T14:35:50.444Z,51.40
2019-01-21T14:38:38.518Z,58.40
2019-01-21T14:41:17.334Z,62.50
2019-01-21T14:44:10.109Z,59.70
2019-01-21T14:46:48.907Z,50.87
2019-01-21T14:49:27.492Z,61.50
2019-01-21T14:52:22.873Z,54.53
2019-01-21T14:55:01.655Z,55.17
2019-01-21T14:57:34.557Z,52.47
2019-01-21T15:00:22.553Z,51.67
2019-01-21T15:02:58.259Z,48.20
2019-01-21T15:06:03.040Z,53.80
2019-01-21T15:08:35.918Z,55.20
2019-01-21T15:11:14.631Z,48.27
2019-01-21T15:14:02.800Z,45.90
2019-01-21T15:16:53.163Z,52.80
2019-01-21T15:19:26.238Z,52.40
2019-01-21T15:22:01.710Z,55.53
2019-01-21T15:25:00.416Z,51.07
2019-01-21T15:27:36.337Z,55.27
2019-01-21T15:30:29.087Z,52.30
2019-01-21T15:33:07.957Z,63.57
2019-01-21T15:35:57.766Z,52.57
2019-01-21T15:38:45.391Z,55.27
2019-01-21T15:41:40.908Z,63.00
2019-01-21T15:44:14.071Z,59.13
2019-01-21T15:47:15.545Z,59.67
2019-01-21T15:53:07.779Z,54.67
2019-01-21T15:55:56.062Z,67.33
2019-01-21T15:58:37.771Z,65.23
2019-01-21T16:01:27.339Z,68.73
2019-01-21T16:04:17.122Z,77.30
2019-01-21T16:06:56.069Z,74.13
2019-01-21T16:09:44.341Z,82.77
2019-01-21T16:12:29.397Z,87.00
2019-01-21T16:15:11.242Z,85.43
2019-01-21T16:17:53.345Z,94.07
2019-01-21T16:24:01.112Z,87.57
2019-01-21T16:26:38.869Z,87.43
2019-01-21T16:29:47.781Z,93.93
2019-01-21T16:32:18.950Z,92.23
2019-01-21T16:35:34.024Z,92.13
2019-01-21T16:38:08.129Z,92.07
2019-01-21T16:41:21.036Z,88.57
2019-01-21T16:44:03.558Z,97.27
2019-01-21T16:46:34.432Z,94.70
2019-01-21T16:49:13.371Z,99.70
2019-01-21T16:51:50.777Z,114.20
2019-01-21T16:54:38.903Z,97.27
2019-01-21T16:57:18.797Z,97.73
2019-01-21T16:59:59.602Z,97.23
2019-01-21T17:02:29.260Z,103.00
2019-01-21T17:04:58.878Z,89.73
2019-01-21T17:07:30.165Z,94.13
2019-01-21T17:09:59.772Z,95.70
2019-01-21T17:12:29.652Z,94.77
2019-01-21T17:15:06.721Z,95.60
2019-01-21T17:17:38.176Z,108.77
2019-01-21T17:20:22.572Z,116.43
2019-01-21T17:22:58.623Z,100.23
2019-01-21T17:25:29.353Z,104.63
2019-01-21T17:28:18.279Z,99.83
2019-01-21T17:31:19.281Z,100.90
2019-01-21T17:34:05.000Z,99.63
2019-01-21T17:36:41.746Z,99.33
2019-01-21T17:39:24.593Z,103.93
2019-01-21T17:41:54.775Z,101.73
2019-01-21T17:44:27.512Z,115.83
2019-01-21T17:47:04.505Z,107.37
2019-01-21T17:49:36.808Z,110.03
2019-01-21T17:52:21.129Z,107.60
2019-01-21T17:55:07.213Z,107.20
2019-01-21T17:57:37.370Z,105.70
2019-01-21T18:00:18.775Z,101.07
2019-01-21T18:05:51.082Z,122.57
2019-01-21T18:08:29.577Z,117.93
2019-01-21T18:11:10.503Z,121.97
2019-01-21T18:13:49.971Z,120.67
2019-01-21T18:16:35.105Z,126.57
2019-01-21T18:19:16.702Z,117.20
2019-01-21T18:21:46.004Z,128.47
2019-01-21T18:24:22.377Z,128.40
2019-01-21T18:27:14.483Z,123.70
2019-01-21T18:29:43.857Z,126.53
2019-01-21T18:32:13.156Z,121.83
2019-01-21T18:34:42.462Z,128.70
2019-01-21T18:37:11.839Z,125.43
2019-01-21T18:39:41.178Z,111.63
2019-01-21T18:42:10.566Z,106.43
2019-01-21T18:44:39.961Z,114.00
2019-01-21T18:47:09.261Z,103.67
2019-01-21T18:49:39.004Z,106.93
2019-01-21T18:52:08.425Z,106.57
2019-01-21T18:54:37.722Z,112.07
2019-01-21T18:57:07.014Z,104.97
2019-01-21T18:59:36.324Z,101.97
2019-01-21T19:02:05.637Z,101.47
2019-01-21T19:04:35.032Z,104.30
2019-01-21T19:07:54.774Z,95.87
2019-01-21T19:10:20.246Z,103.73
2019-01-21T19:12:49.566Z,97.93
2019-01-21T19:15:34.805Z,97.67
2019-01-21T19:18:18.165Z,105.47
2019-01-21T19:23:55.060Z,97.93
2019-01-21T19:29:22.989Z,96.80
2019-01-21T19:31:49.944Z,103.33
2019-01-21T19:34:19.400Z,105.77
2019-01-21T19:36:48.896Z,98.97
2019-01-21T19:39:18.331Z,102.03
2019-01-21T19:41:47.829Z,101.27
2019-01-21T19:44:20.490Z,112.47
2019-01-21T19:46:49.796Z,113.17
2019-01-21T19:49:21.158Z,115.77
2019-01-21T19:51:50.566Z,109.67
2019-01-21T19:54:19.858Z,105.53
2019-01-21T19:56:49.440Z,116.97
2019-01-21T19:59:18.949Z,111.20
2019-01-21T20:01:48.285Z,117.33
2019-01-21T20:04:17.757Z,113.10
2019-01-21T20:06:50.504Z,119.33
2019-01-21T20:09:20.152Z,102.43
2019-01-21T20:11:55.107Z,108.03
2019-01-21T20:14:47.107Z,100.50
2019-01-21T20:17:11.503Z,100.17
2019-01-21T20:19:41.004Z,93.40
2019-01-21T20:22:11.342Z,106.53
2019-01-21T20:24:40.731Z,101.37
2019-01-21T20:27:10.018Z,100.27
2019-01-21T20:29:39.318Z,110.27
2019-01-21T20:32:08.681Z,105.17
2019-01-21T20:34:37.985Z,115.17
2019-01-21T20:37:07.283Z,99.30
2019-01-21T20:39:36.574Z,110.67
2019-01-21T20:42:05.866Z,107.33
2019-01-21T20:44:35.178Z,111.03
2019-01-21T20:47:04.595Z,114.63
2019-01-21T20:49:33.932Z,127.80
2019-01-21T20:52:03.316Z,128.57
2019-01-21T20:54:32.893Z,122.47
2019-01-21T20:57:02.287Z,111.87
2019-01-21T20:59:31.677Z,124.20
2019-01-21T21:02:00.982Z,117.77
2019-01-21T21:04:31.988Z,125.67
2019-01-21T21:07:10.033Z,131.50
2019-01-21T21:09:39.906Z,122.37
2019-01-21T21:12:09.504Z,125.90
2019-01-21T21:14:38.881Z,131.23
2019-01-21T21:17:15.650Z,129.17
2019-01-21T21:19:44.959Z,145.60
2019-01-21T21:22:20.837Z,138.70
2019-01-21T21:24:45.410Z,143.13
2019-01-21T21:27:14.694Z,142.57
2019-01-21T21:29:44.306Z,137.13
2019-01-21T21:32:17.101Z,142.37
2019-01-21T21:34:46.476Z,147.30
2019-01-21T21:37:15.764Z,148.47
2019-01-21T21:39:45.076Z,150.73
2019-01-21T21:42:22.822Z,147.47
2019-01-21T21:44:52.124Z,142.50
2019-01-21T21:47:21.496Z,155.17
2019-01-21T21:49:51.685Z,170.03
2019-01-21T21:52:27.613Z,156.87
2019-01-21T21:54:52.112Z,153.47
2019-01-21T21:57:21.406Z,154.53
2019-01-21T21:59:50.769Z,165.60
2019-01-21T22:02:20.137Z,143.10
2019-01-21T22:04:49.815Z,145.03
2019-01-21T22:07:19.112Z,147.77
2019-01-21T22:09:48.410Z,138.87
2019-01-21T22:12:17.836Z,146.17
2019-01-21T22:14:47.217Z,139.03
2019-01-21T22:17:16.527Z,153.23
2019-01-21T22:19:45.827Z,143.60
2019-01-21T22:22:15.237Z,138.80
2019-01-21T22:27:23.928Z,143.90
2019-01-21T22:29:55.336Z,150.40
2019-01-21T22:35:09.079Z,140.57
2019-01-21T22:37:38.379Z,144.63
2019-01-21T22:40:11.217Z,145.40
2019-01-21T22:43:34.144Z,130.47
2019-01-21T22:49:41.286Z,128.40
2019-01-21T22:55:10.431Z,124.63
2019-01-21T22:58:04.425Z,134.17
2019-01-21T23:00:54.184Z,122.63
2019-01-21T23:04:03.182Z,129.87
2019-01-21T23:06:22.936Z,133.03
2019-01-21T23:08:52.229Z,142.97
2019-01-21T23:11:21.538Z,141.83
2019-01-21T23:13:50.830Z,168.53
2019-01-21T23:16:20.415Z,148.87
2019-01-21T23:18:49.777Z,161.00
2019-01-21T23:21:19.101Z,155.13
2019-01-21T23:23:48.401Z,155.30
2019-01-21T23:26:17.710Z,149.63
2019-01-21T23:28:47.390Z,134.90
2019-01-21T23:31:16.692Z,156.50
2019-01-21T23:33:45.997Z,136.23
2019-01-21T23:36:15.368Z,148.37
2019-01-21T23:38:44.732Z,145.80
2019-01-21T23:41:14.034Z,141.57
2019-01-21T23:43:43.335Z,133.43
2019-01-21T23:46:12.627Z,133.77
2019-01-21T23:48:41.938Z,178.60
2019-01-21T23:51:11.217Z,185.67
2019-01-21T23:53:40.588Z,170.27
2019-01-21T23:56:09.952Z,172.57
2019-01-21T23:58:39.241Z,157.07
